Time;durP1;ratioP1;P1;durP2;ratioP2;P2;SDS_P1;SDS_P2;PMS_P1;PMS_P2;Temp;Humidity;BMP_temperature;BMP_pressure;BME280_temperature;BME280_humidity;BME280_pressure;Samples;Min_cycle;Max_cycle;Signal;HPM_P1;HPM_P2
2022/04/01 00:01:58;;;;;;;22.53;14.30;;;;;;;6.26;85.24;97663.91;4999738;28;20257;-74
2022/04/01 00:04:24;;;;;;;19.60;13.73;;;;;;;6.22;85.60;97663.31;4999476;28;20353;-72
2022/04/01 00:06:49;;;;;;;29.03;18.37;;;;;;;6.17;85.56;97660.22;5000449;28;20588;-73
2022/04/01 00:09:14;;;;;;;23.73;13.90;;;;;;;6.11;85.23;97666.75;4999167;28;20364;-73
2022/04/01 00:11:40;;;;;;;23.13;14.23;;;;;;;6.05;85.84;97656.78;4999250;28;20210;-71
2022/04/01 00:14:05;;;;;;;22.90;12.20;;;;;;;6.01;85.82;97665.78;4999842;28;20304;-72
2022/04/01 00:16:31;;;;;;;20.73;11.57;;;;;;;6.00;85.90;97663.31;5000042;28;20213;-71
2022/04/01 00:18:57;;;;;;;21.83;12.52;;;;;;;5.96;85.90;97657.47;4999548;28;20210;-73
2022/04/01 00:21:23;;;;;;;15.48;10.45;;;;;;;5.93;85.69;97663.75;5003766;28;20584;-72
2022/04/01 00:23:48;;;;;;;16.67;10.17;;;;;;;5.90;85.94;97660.53;5003443;28;20715;-74
2022/04/01 00:26:14;;;;;;;15.00;10.40;;;;;;;5.88;85.68;97660.63;5003551;28;20199;-74
2022/04/01 00:28:39;;;;;;;14.87;9.90;;;;;;;5.86;85.60;97661.69;5002993;28;20234;-72
2022/04/01 00:31:05;;;;;;;15.30;10.13;;;;;;;5.84;85.73;97661.00;5002724;28;20294;-74
2022/04/01 00:33:31;;;;;;;14.17;9.83;;;;;;;5.83;85.71;97667.94;5004080;28;20726;-73
2022/04/01 00:35:57;;;;;;;15.77;11.25;;;;;;;5.82;85.57;97666.31;5004085;28;20206;-74
2022/04/01 00:38:23;;;;;;;15.03;9.97;;;;;;;5.79;85.72;97656.13;5003902;28;20724;-74
2022/04/01 00:40:51;;;;;;;14.53;9.23;;;;;;;5.78;85.64;97659.69;5003553;28;20285;-72
2022/04/01 00:43:16;;;;;;;13.52;10.07;;;;;;;5.78;85.52;97659.69;4999590;28;20520;-74
2022/04/01 00:45:41;;;;;;;14.53;9.50;;;;;;;5.82;85.51;97657.66;5000804;28;20726;-71
2022/04/01 00:48:07;;;;;;;12.70;9.87;;;;;;;5.86;85.52;97657.31;5003290;28;20287;-74
2022/04/01 00:50:33;;;;;;;13.60;10.10;;;;;;;5.91;85.38;97656.97;5004885;28;20241;-74
2022/04/01 00:52:59;;;;;;;15.50;9.63;;;;;;;5.96;85.10;97655.69;5002928;28;20663;-74
2022/04/01 00:55:29;;;;;;;11.27;9.02;;;;;;;5.95;85.06;97656.66;5017172;28;20230;-71
2022/04/01 00:57:55;;;;;;;9.02;7.57;;;;;;;5.97;85.35;97664.38;5001040;28;20265;-72
2022/04/01 01:00:21;;;;;;;13.60;9.10;;;;;;;5.99;85.22;97652.03;5001943;28;21175;-74
2022/04/01 01:02:47;;;;;;;13.73;10.57;;;;;;;6.04;85.34;97649.91;5001896;28;20478;-74
2022/04/01 01:05:13;;;;;;;12.75;10.20;;;;;;;6.04;85.40;97651.69;5001636;28;20473;-73
2022/04/01 01:07:42;;;;;;;13.07;9.07;;;;;;;5.99;84.71;97652.03;5003845;28;20199;-73
2022/04/01 01:10:10;;;;;;;15.75;10.25;;;;;;;5.90;85.13;97653.53;5001787;28;20235;-72
2022/04/01 01:12:37;;;;;;;15.00;10.07;;;;;;;5.84;84.87;97654.00;5001412;28;20268;-74
2022/04/01 01:15:11;;;;;;;17.02;10.98;;;;;;;5.77;84.46;97651.00;5002426;28;20735;-73
2022/04/01 01:17:39;;;;;;;15.48;10.05;;;;;;;5.71;84.64;97646.28;5002857;28;20345;-71
2022/04/01 01:20:12;;;;;;;17.52;10.85;;;;;;;5.65;84.11;97641.53;5001698;28;20195;-70
2022/04/01 01:22:41;;;;;;;19.70;12.88;;;;;;;5.61;84.80;97644.47;4999971;28;20469;-73
2022/04/01 01:25:12;;;;;;;16.90;10.52;;;;;;;5.57;84.33;97641.28;5000039;28;20235;-73
2022/04/01 01:27:39;;;;;;;15.07;10.38;;;;;;;5.58;84.65;97642.09;5016647;28;20329;-71
2022/04/01 01:30:06;;;;;;;17.48;10.98;;;;;;;5.54;84.45;97644.94;5003652;28;20675;-71
2022/04/01 01:32:34;;;;;;;19.10;13.30;;;;;;;5.56;84.69;97642.19;5001465;28;20835;-74
2022/04/01 01:35:00;;;;;;;14.65;11.80;;;;;;;5.57;84.50;97637.84;5002241;28;20232;-74
2022/04/01 01:37:25;;;;;;;15.13;10.50;;;;;;;5.59;84.49;97638.53;5003560;28;20210;-74
2022/04/01 01:39:51;;;;;;;13.13;10.37;;;;;;;5.58;84.38;97637.72;5000428;28;20226;-71
2022/04/01 01:42:18;;;;;;;16.40;10.63;;;;;;;5.55;84.50;97638.78;5017539;28;20508;-72
2022/04/01 01:44:44;;;;;;;16.45;10.93;;;;;;;5.57;84.24;97635.25;5002010;28;20309;-72
2022/04/01 01:47:09;;;;;;;14.40;9.60;;;;;;;5.51;84.11;97636.53;4999461;28;20296;-73
2022/04/01 01:49:35;;;;;;;12.13;10.10;;;;;;;5.47;84.18;97635.91;5003345;28;20369;-74
2022/04/01 01:54:49;;;;;;;12.95;9.43;;;;;;;5.39;84.22;97627.84;5001156;28;20578;-74
2022/04/01 01:57:24;;;;;;;15.32;9.77;;;;;;;5.32;83.96;97624.06;5001664;28;20217;-74
2022/04/01 01:59:51;;;;;;;18.58;11.30;;;;;;;5.27;84.36;97623.56;5000406;28;20596;-73
2022/04/01 02:02:18;;;;;;;19.25;13.05;;;;;;;5.24;84.52;97616.81;4999453;28;20520;-74
2022/04/01 02:04:43;;;;;;;16.90;12.98;;;;;;;5.22;84.21;97623.06;5001671;28;20354;-74
2022/04/01 02:07:10;;;;;;;21.27;11.83;;;;;;;5.18;84.42;97632.03;5001448;28;20556;-74
2022/04/01 02:09:37;;;;;;;17.17;11.30;;;;;;;5.17;84.59;97623.41;5001704;28;20392;-75
2022/04/01 02:12:03;;;;;;;15.52;11.20;;;;;;;5.15;84.45;97625.28;5000316;28;20663;-75
2022/04/01 02:14:34;;;;;;;15.45;12.02;;;;;;;5.13;84.64;97621.97;4999282;28;20708;-74
2022/04/01 02:17:01;;;;;;;14.80;8.95;;;;;;;5.10;84.40;97625.63;4998909;28;20238;-72
2022/04/01 02:19:27;;;;;;;16.73;10.90;;;;;;;5.08;84.57;97631.88;5000943;28;20276;-74
2022/04/01 02:21:54;;;;;;;15.80;9.70;;;;;;;5.05;84.42;97627.72;5015641;28;20814;-71
2022/04/01 02:24:22;;;;;;;18.05;12.82;;;;;;;5.06;84.59;97631.97;4984112;28;20778;-75
2022/04/01 02:26:47;;;;;;;16.27;11.40;;;;;;;5.09;84.40;97625.72;5014182;28;20201;-73
2022/04/01 02:29:18;;;;;;;17.08;10.40;;;;;;;5.08;84.30;97631.88;5012981;28;20236;-73
2022/04/01 02:32:06;;;;;;;19.33;13.07;;;;;;;5.09;84.43;97626.56;4968306;28;20993;-72
2022/04/01 02:34:49;;;;;;;19.58;12.15;;;;;;;5.08;84.52;97632.72;4999702;28;20738;-72
2022/04/01 02:37:17;;;;;;;17.10;12.37;;;;;;;5.10;84.62;97632.59;4999600;28;20206;-72
2022/04/01 02:39:43;;;;;;;13.93;10.15;;;;;;;5.12;84.57;97635.09;4998233;28;20214;-72
2022/04/01 02:42:09;;;;;;;15.75;11.90;;;;;;;5.10;84.24;97633.44;4998408;28;20234;-72
2022/04/01 02:44:35;;;;;;;14.77;11.37;;;;;;;5.05;83.83;97637.28;4997261;28;20731;-72
2022/04/01 02:47:01;;;;;;;13.27;8.57;;;;;;;4.99;83.59;97635.97;4997377;28;20930;-72
2022/04/01 02:49:27;;;;;;;15.00;10.60;;;;;;;4.93;83.28;97639.00;4999560;28;20496;-72
2022/04/01 02:51:57;;;;;;;13.07;9.73;;;;;;;4.86;82.70;97640.38;4999038;28;20205;-72
2022/04/01 02:54:22;;;;;;;11.90;9.80;;;;;;;4.79;82.75;97640.00;4997133;28;20483;-72
2022/04/01 02:56:50;;;;;;;14.80;10.10;;;;;;;4.76;82.65;97642.84;4996677;28;20226;-72
2022/04/01 02:59:16;;;;;;;17.90;10.73;;;;;;;4.77;82.68;97648.88;4996979;28;20202;-72
2022/04/01 03:01:42;;;;;;;15.80;10.97;;;;;;;4.80;82.70;97646.03;4998376;28;20490;-72
2022/04/01 03:04:10;;;;;;;13.13;8.77;;;;;;;4.80;82.61;97648.63;4998414;28;20230;-72
2022/04/01 03:06:45;;;;;;;14.60;11.60;;;;;;;4.76;82.36;97649.81;4997627;28;20211;-73
2022/04/01 03:09:12;;;;;;;17.58;10.45;;;;;;;4.74;82.47;97649.09;4997078;28;20563;-72
2022/04/01 03:11:42;;;;;;;16.35;11.70;;;;;;;4.72;82.80;97661.34;5013270;28;20211;-72
2022/04/01 03:14:17;;;;;;;15.60;12.18;;;;;;;4.70;82.59;97655.44;5013993;28;20262;-73
2022/04/01 03:17:02;;;;;;;14.80;10.55;;;;;;;4.73;82.86;97665.63;4998183;28;20493;-73
2022/04/01 03:19:29;;;;;;;15.65;11.13;;;;;;;4.74;82.78;97664.69;5002402;28;20221;-73
2022/04/01 03:21:55;;;;;;;14.45;10.32;;;;;;;4.73;82.57;97668.25;4996501;28;20206;-72
2022/04/01 03:24:20;;;;;;;17.60;12.00;;;;;;;4.72;82.58;97672.59;4996541;28;20929;-72
2022/04/01 03:26:47;;;;;;;18.20;12.03;;;;;;;4.72;82.72;97659.59;4996265;28;20462;-72
2022/04/01 03:29:12;;;;;;;19.27;11.20;;;;;;;4.73;82.71;97666.47;4997979;28;20452;-73
2022/04/01 03:31:40;;;;;;;16.30;12.77;;;;;;;4.74;82.87;97668.13;4996764;28;20736;-73
2022/04/01 03:34:06;;;;;;;17.48;11.63;;;;;;;4.78;83.04;97663.50;4996061;28;20227;-72
2022/04/01 03:36:36;;;;;;;16.65;11.18;;;;;;;4.77;82.98;97660.09;4999300;28;20217;-73
2022/04/01 03:39:03;;;;;;;16.15;10.25;;;;;;;4.76;82.93;97671.44;4998758;28;20198;-72
2022/04/01 03:41:56;;;;;;;12.45;9.13;;;;;;;4.73;83.00;97665.63;4999342;28;20913;-73
2022/04/01 03:44:25;;;;;;;17.33;11.30;;;;;;;4.66;82.94;97667.81;5014850;28;20712;-73
2022/04/01 03:47:16;;;;;;;12.75;10.63;;;;;;;4.63;82.92;97668.06;4998856;28;20242;-73
2022/04/01 03:50:03;;;;;;;15.40;10.60;;;;;;;4.59;83.08;97670.03;5013588;28;20247;-72
2022/04/01 03:52:32;;;;;;;14.05;10.55;;;;;;;4.59;83.07;97669.19;5015155;28;20521;-72
2022/04/01 03:55:02;;;;;;;11.57;10.32;;;;;;;4.59;83.17;97675.25;4999501;28;20318;-73
2022/04/01 03:57:49;;;;;;;18.00;11.98;;;;;;;4.60;82.80;97668.28;5003797;28;20225;-73
2022/04/01 04:00:32;;;;;;;16.90;12.60;;;;;;;4.61;82.94;97670.75;5019430;28;20206;-72
2022/04/01 04:02:59;;;;;;;15.38;11.60;;;;;;;4.61;82.79;97670.75;5002185;28;20209;-72
2022/04/01 04:05:30;;;;;;;16.60;11.85;;;;;;;4.61;82.90;97668.16;5001538;28;20230;-73
2022/04/01 04:07:57;;;;;;;14.02;10.30;;;;;;;4.62;82.83;97680.22;5000646;28;20207;-73
2022/04/01 04:10:27;;;;;;;13.98;11.57;;;;;;;4.61;82.84;97672.53;5000741;28;20234;-73
2022/04/01 04:13:18;;;;;;;15.25;10.10;;;;;;;4.59;82.74;97677.84;5016382;28;20290;-73
2022/04/01 04:16:09;;;;;;;14.00;9.95;;;;;;;4.59;82.82;97680.44;5000229;28;20241;-73
2022/04/01 04:18:47;;;;;;;16.20;10.65;;;;;;;4.59;82.78;97675.25;4999895;28;20686;-73
2022/04/01 04:21:30;;;;;;;17.60;12.13;;;;;;;4.59;82.82;97684.78;5015566;28;20707;-73
2022/04/01 04:24:03;;;;;;;18.58;11.05;;;;;;;4.57;83.08;97682.31;5000939;28;20233;-73
2022/04/01 04:26:47;;;;;;;16.55;11.45;;;;;;;4.53;83.16;97680.03;5016270;28;20404;-73
2022/04/01 04:29:14;;;;;;;17.70;11.93;;;;;;;4.54;82.99;97687.72;5015280;28;20643;-73
2022/04/01 04:32:02;;;;;;;17.38;11.80;;;;;;;4.53;83.32;97690.44;4998845;28;20304;-73
2022/04/01 04:34:35;;;;;;;16.85;12.20;;;;;;;4.53;83.51;97690.44;5015541;28;20237;-73
2022/04/01 04:37:02;;;;;;;17.67;11.50;;;;;;;4.56;83.38;97688.44;5014685;28;20226;-73
2022/04/01 04:39:32;;;;;;;16.00;11.23;;;;;;;4.52;83.29;97688.78;5014761;28;20589;-73
2022/04/01 04:41:58;;;;;;;12.25;10.02;;;;;;;4.47;83.28;97691.69;4998339;28;20265;-73
2022/04/01 04:44:27;;;;;;;17.58;13.52;;;;;;;4.44;83.50;97697.94;4997722;28;20234;-73
2022/04/01 04:46:54;;;;;;;18.05;12.27;;;;;;;4.44;83.67;97697.94;5006944;28;20739;-73
2022/04/01 04:49:22;;;;;;;20.67;13.20;;;;;;;4.44;83.52;97707.50;4996694;28;20239;-73
2022/04/01 04:51:48;;;;;;;18.00;11.77;;;;;;;4.46;83.43;97710.00;5012875;28;20210;-72
2022/04/01 04:54:26;;;;;;;19.35;13.75;;;;;;;4.46;83.31;97703.03;4995627;28;20531;-72
2022/04/01 04:57:04;;;;;;;21.60;14.80;;;;;;;4.46;83.54;97710.84;5004418;28;20210;-73
2022/04/01 04:59:30;;;;;;;18.02;12.15;;;;;;;4.47;83.24;97703.84;4994819;28;20254;-73
2022/04/01 05:02:01;;;;;;;18.17;12.38;;;;;;;4.43;83.18;97709.28;4996928;28;20226;-73
2022/04/01 05:05:07;;;;;;;16.75;12.55;;;;;;;4.39;83.20;97713.00;5002683;28;20237;-73
2022/04/01 05:08:01;;;;;;;19.45;11.65;;;;;;;4.41;83.39;97723.31;4963234;28;20268;-73
2022/04/01 05:10:53;;;;;;;21.33;13.00;;;;;;;4.39;83.47;97719.97;5006240;28;20236;-73
2022/04/01 05:13:45;;;;;;;19.40;11.93;;;;;;;4.34;83.32;97728.09;5020374;28;20199;-73
2022/04/01 05:16:49;;;;;;;23.35;14.07;;;;;;;4.33;83.57;97730.81;5004231;28;20762;-73
2022/04/01 05:19:27;;;;;;;19.45;12.98;;;;;;;4.30;83.77;97737.03;4988753;28;20260;-73
2022/04/01 05:22:05;;;;;;;17.55;13.10;;;;;;;4.26;83.62;97748.56;5005160;28;20198;-73
2022/04/01 05:24:50;;;;;;;23.42;16.33;;;;;;;4.24;83.78;97742.66;5001539;28;20489;-73
2022/04/01 05:27:23;;;;;;;20.95;14.18;;;;;;;4.21;83.73;97748.03;5001757;28;20205;-73
2022/04/01 05:30:13;;;;;;;20.35;12.90;;;;;;;4.11;83.84;97749.63;5003581;28;20904;-73
2022/04/01 05:33:06;;;;;;;24.27;12.70;;;;;;;3.99;84.16;97746.06;5004024;28;20249;-73
2022/04/01 05:35:38;;;;;;;23.38;15.07;;;;;;;3.91;84.63;97754.34;5000954;28;20596;-73
2022/04/01 05:38:09;;;;;;;21.60;14.95;;;;;;;3.85;84.82;97752.16;5015666;28;20217;-73
2022/04/01 05:40:38;;;;;;;17.08;11.90;;;;;;;3.81;84.97;97762.84;4999798;28;20206;-73
2022/04/01 05:43:06;;;;;;;22.92;15.02;;;;;;;3.75;84.95;97762.34;5005230;28;20211;-73
2022/04/01 05:45:34;;;;;;;28.08;17.75;;;;;;;3.71;85.35;97760.88;5002570;28;20288;-73
2022/04/01 05:48:02;;;;;;;20.67;14.45;;;;;;;3.67;85.17;97764.63;5002301;28;20298;-73
2022/04/01 05:50:28;;;;;;;26.17;17.38;;;;;;;3.62;85.58;97765.81;4981036;28;1063607;-73
2022/04/01 05:52:54;;;;;;;27.73;16.20;;;;;;;3.60;85.88;97770.31;5001065;28;20222;-73
2022/04/01 05:55:22;;;;;;;26.50;16.73;;;;;;;3.57;85.63;97781.72;5003031;28;20634;-73
2022/04/01 05:57:49;;;;;;;24.30;14.48;;;;;;;3.57;85.93;97781.72;5016732;28;20226;-73
2022/04/01 06:00:15;;;;;;;25.42;15.40;;;;;;;3.57;85.50;97784.31;5001447;28;20601;-73
2022/04/01 06:03:08;;;;;;;25.98;18.88;;;;;;;3.54;85.68;97789.69;5003401;28;20878;-74
2022/04/01 06:05:35;;;;;;;21.40;14.70;;;;;;;3.49;85.68;97787.38;5002210;28;20250;-73
2022/04/01 06:08:44;;;;;;;21.98;13.85;;;;;;;3.46;85.67;97797.16;5001458;28;20229;-74
2022/04/01 06:11:22;;;;;;;18.45;13.48;;;;;;;3.44;85.63;97796.41;5018051;28;20281;-74
2022/04/01 06:14:26;;;;;;;20.88;14.93;;;;;;;3.39;85.50;97801.06;4997115;28;20706;-74
2022/04/01 06:17:51;;;;;;;22.45;12.35;;;;;;;3.29;85.13;97804.25;5001954;28;20229;-73
2022/04/01 06:20:20;;;;;;;21.25;12.68;;;;;;;3.20;85.51;97802.19;5001850;28;20636;-73
2022/04/01 06:22:55;;;;;;;23.20;15.02;;;;;;;3.15;85.42;97812.03;5000139;28;20922;-73
2022/04/01 06:25:29;;;;;;;22.55;14.48;;;;;;;3.17;85.70;97810.19;5002098;28;20308;-74
2022/04/01 06:28:15;;;;;;;32.35;20.27;;;;;;;3.18;85.54;97811.00;4999233;28;20210;-73
2022/04/01 06:30:42;;;;;;;28.73;18.05;;;;;;;3.17;85.24;97817.13;5001402;28;20857;-76
2022/04/01 06:33:30;;;;;;;26.13;15.95;;;;;;;3.18;85.46;97823.97;4999096;28;20203;-74
2022/04/01 06:36:07;;;;;;;28.15;16.50;;;;;;;3.16;85.30;97826.69;5016182;28;20222;-73
2022/04/01 06:38:39;;;;;;;27.65;16.73;;;;;;;3.16;85.52;97816.31;5001912;28;20203;-73
2022/04/01 06:41:12;;;;;;;24.50;15.90;;;;;;;3.15;85.40;97832.78;5004191;28;20233;-73
2022/04/01 06:43:48;;;;;;;25.65;16.00;;;;;;;3.14;85.60;97825.94;5001054;28;20318;-73
2022/04/01 06:46:40;;;;;;;30.95;17.05;;;;;;;3.14;85.21;97825.13;5002995;28;20310;-73
2022/04/01 06:49:11;;;;;;;26.30;16.95;;;;;;;3.12;85.36;97826.97;5018502;28;20258;-73
2022/04/01 06:51:56;;;;;;;30.67;16.90;;;;;;;3.16;85.55;97833.63;5003005;28;20322;-73
2022/04/01 06:54:40;;;;;;;29.90;19.30;;;;;;;3.19;85.42;97839.47;5002498;28;20277;-73
2022/04/01 06:57:25;;;;;;;33.13;17.85;;;;;;;3.27;85.07;97837.22;5003196;28;20226;-73
2022/04/01 07:00:13;;;;;;;27.58;17.08;;;;;;;3.34;85.10;97840.25;5003437;28;20272;-73
2022/04/01 07:02:41;;;;;;;31.80;19.58;;;;;;;3.42;85.19;97842.38;5003157;28;20198;-73
2022/04/01 07:05:11;;;;;;;24.17;16.55;;;;;;;3.45;85.04;97843.00;5002454;28;20269;-73
2022/04/01 07:07:36;;;;;;;29.90;16.55;;;;;;;3.48;85.10;97844.56;5003546;28;20361;-73
2022/04/01 07:10:04;;;;;;;29.70;18.60;;;;;;;3.50;84.99;97845.31;5002825;28;20234;-74
2022/04/01 07:12:31;;;;;;;29.08;19.80;;;;;;;3.52;84.92;97844.28;5002876;28;20211;-74
2022/04/01 07:14:58;;;;;;;33.30;19.17;;;;;;;3.55;85.18;97849.28;5002947;28;20715;-73
2022/04/01 07:17:25;;;;;;;25.83;16.92;;;;;;;3.55;84.81;97843.28;5002734;28;20467;-73
2022/04/01 07:19:51;;;;;;;31.02;19.27;;;;;;;3.57;84.81;97848.38;5001834;28;20301;-73
2022/04/01 07:22:16;;;;;;;27.80;18.10;;;;;;;3.56;84.98;97850.13;5002544;28;20702;-73
2022/04/01 07:24:42;;;;;;;22.67;15.87;;;;;;;3.60;84.80;97848.19;5002165;28;20233;-73
2022/04/01 07:27:08;;;;;;;24.10;17.20;;;;;;;3.60;84.78;97841.22;5003694;28;20210;-73
2022/04/01 07:29:34;;;;;;;24.35;15.90;;;;;;;3.63;84.57;97856.59;5002541;28;20227;-73
2022/04/01 07:34:44;;;;;;;30.67;19.92;;;;;;;3.55;84.22;97858.84;5000720;28;20266;-73
2022/04/01 07:37:11;;;;;;;25.37;16.60;;;;;;;3.51;84.69;97862.56;5001740;28;20337;-74
2022/04/01 07:39:37;;;;;;;27.60;15.05;;;;;;;3.48;84.22;97870.53;5000642;28;20464;-73
2022/04/01 07:42:04;;;;;;;25.40;15.70;;;;;;;3.38;84.47;97864.28;4999994;28;20206;-73
2022/04/01 07:44:30;;;;;;;26.20;16.05;;;;;;;3.27;84.22;97870.97;5001419;28;21212;-73
2022/04/01 07:46:55;;;;;;;24.23;15.77;;;;;;;3.23;84.43;97872.06;5001056;28;20290;-73
2022/04/01 07:49:21;;;;;;;29.90;17.03;;;;;;;3.23;84.64;97869.47;5002328;28;20254;-73
2022/04/01 07:51:46;;;;;;;28.50;15.50;;;;;;;3.28;84.63;97871.78;5001657;28;20206;-73
2022/04/01 07:54:14;;;;;;;32.17;17.07;;;;;;;3.31;84.38;97877.59;5001512;28;20777;-73
2022/04/01 07:56:41;;;;;;;25.08;15.02;;;;;;;3.29;84.18;97873.44;5001546;28;20222;-73
2022/04/01 07:59:08;;;;;;;24.73;15.98;;;;;;;3.25;84.63;97877.16;4999766;28;20213;-73
2022/04/01 08:01:34;;;;;;;25.08;17.13;;;;;;;3.26;84.63;97877.06;5000398;28;20490;-73
2022/04/01 08:04:00;;;;;;;26.65;18.17;;;;;;;3.29;84.65;97878.63;5001163;28;20226;-73
2022/04/01 08:06:25;;;;;;;28.57;17.97;;;;;;;3.31;84.65;97875.00;5000081;28;20670;-73
2022/04/01 08:08:51;;;;;;;23.50;15.73;;;;;;;3.31;84.50;97877.59;5000009;28;20836;-74
2022/04/01 08:11:16;;;;;;;32.87;18.30;;;;;;;3.30;84.52;97880.31;5000082;28;20211;-73
2022/04/01 08:13:41;;;;;;;30.20;18.90;;;;;;;3.31;84.70;97888.00;5000478;28;20610;-73
2022/04/01 08:16:08;;;;;;;34.20;17.87;;;;;;;3.36;84.53;97882.53;4999389;28;20238;-74
2022/04/01 08:18:33;;;;;;;30.20;17.98;;;;;;;3.42;84.80;97887.31;5000731;28;20211;-73
2022/04/01 08:20:59;;;;;;;23.77;16.93;;;;;;;3.51;84.39;97884.19;5000092;28;20206;-73
2022/04/01 08:23:24;;;;;;;28.43;19.37;;;;;;;3.56;84.33;97891.66;4999503;28;20214;-74
2022/04/01 08:25:50;;;;;;;33.40;18.10;;;;;;;3.65;84.06;97893.69;4999608;28;20235;-73
2022/04/01 08:28:15;;;;;;;34.63;19.43;;;;;;;3.69;83.72;97896.91;4999606;28;20210;-74
2022/04/01 08:30:41;;;;;;;29.20;17.63;;;;;;;3.70;83.92;97899.44;4999642;28;20250;-73
2022/04/01 08:33:07;;;;;;;25.97;16.00;;;;;;;3.71;83.84;97901.09;4999763;28;20545;-74
2022/04/01 08:35:33;;;;;;;21.10;13.53;;;;;;;3.65;83.73;97901.47;5000197;28;20819;-73
2022/04/01 08:37:59;;;;;;;28.30;15.82;;;;;;;3.66;84.32;97908.31;4999170;28;21333;-73
2022/04/01 08:40:26;;;;;;;15.73;9.18;;;;;;;3.67;84.16;97911.75;4999619;28;20210;-73
2022/04/01 08:42:51;;;;;;;23.67;12.95;;;;;;;3.64;84.06;97920.56;5017440;28;20577;-73
2022/04/01 08:45:18;;;;;;;26.83;13.87;;;;;;;3.62;84.18;97922.44;5003468;28;20296;-74
2022/04/01 08:47:45;;;;;;;27.42;15.57;;;;;;;3.62;84.06;97912.06;5002528;28;20676;-73
2022/04/01 08:50:10;;;;;;;25.77;15.27;;;;;;;3.61;83.92;97918.16;5003093;28;20238;-73
2022/04/01 08:52:37;;;;;;;23.97;15.10;;;;;;;3.62;83.92;97930.22;5003945;28;20217;-73
2022/04/01 08:55:04;;;;;;;23.40;13.88;;;;;;;3.62;83.62;97931.97;5001448;28;20238;-73
2022/04/01 08:57:37;;;;;;;21.13;14.57;;;;;;;3.61;84.21;97930.31;5001701;28;20301;-73
2022/04/01 09:00:23;;;;;;;27.90;15.13;;;;;;;3.63;83.87;97933.66;5002874;28;20211;-73
2022/04/01 09:03:01;;;;;;;24.17;15.02;;;;;;;3.66;84.29;97938.66;5002513;28;20195;-73
2022/04/01 09:05:27;;;;;;;27.80;15.80;;;;;;;3.69;84.04;97947.06;5002703;28;20761;-73
2022/04/01 09:08:06;;;;;;;24.35;16.52;;;;;;;3.73;84.12;97939.97;5001484;28;20218;-73
2022/04/01 09:10:49;;;;;;;23.92;14.38;;;;;;;3.73;83.89;97943.38;5002365;28;20234;-73
2022/04/01 09:13:15;;;;;;;22.90;15.45;;;;;;;3.73;84.15;97942.56;5002903;28;20206;-73
2022/04/01 09:15:42;;;;;;;19.87;13.30;;;;;;;3.69;83.63;97949.69;5002684;28;20607;-73
2022/04/01 09:18:07;;;;;;;21.23;13.93;;;;;;;3.65;83.99;97958.59;5003002;28;20297;-74
2022/04/01 09:20:43;;;;;;;19.47;13.00;;;;;;;3.62;83.99;97957.94;5003621;28;20298;-73
2022/04/01 09:23:09;;;;;;;19.33;13.80;;;;;;;3.57;83.61;97953.06;5002683;28;20313;-73
2022/04/01 09:25:34;;;;;;;20.83;13.00;;;;;;;3.58;84.09;97957.31;5004646;28;20747;-73
2022/04/01 09:28:00;;;;;;;18.67;13.17;;;;;;;3.62;83.93;97957.94;5003715;28;20675;-74
2022/04/01 09:30:27;;;;;;;20.27;13.37;;;;;;;3.65;83.67;97958.59;5004254;28;20218;-73
2022/04/01 09:33:01;;;;;;;26.17;14.73;;;;;;;3.65;83.34;97966.38;5002672;28;20199;-74
2022/04/01 09:35:32;;;;;;;17.25;12.35;;;;;;;3.64;83.71;97969.91;5000892;28;20266;-74
2022/04/01 09:38:04;;;;;;;21.80;14.02;;;;;;;3.63;83.69;97965.66;5002848;28;20446;-73
2022/04/01 09:40:30;;;;;;;26.83;15.75;;;;;;;3.61;83.54;97969.25;5001622;28;20747;-73
2022/04/01 09:42:59;;;;;;;22.23;12.55;;;;;;;3.66;83.47;97975.00;5001732;28;20207;-74
2022/04/01 09:45:28;;;;;;;22.52;13.90;;;;;;;3.69;83.39;97977.41;5001636;28;20230;-73
2022/04/01 09:48:04;;;;;;;24.60;13.00;;;;;;;3.69;83.23;97974.81;5003240;28;20691;-73
2022/04/01 09:50:35;;;;;;;22.65;15.23;;;;;;;3.68;83.58;97979.19;5006879;28;20683;-73
2022/04/01 09:53:08;;;;;;;25.67;17.40;;;;;;;3.71;83.43;97975.56;4998933;28;20248;-73
2022/04/01 09:55:38;;;;;;;20.00;11.55;;;;;;;3.75;83.33;97980.47;5000958;28;20273;-73
2022/04/01 09:58:05;;;;;;;19.60;12.27;;;;;;;3.79;83.16;97975.91;5001215;28;20269;-73
2022/04/01 10:00:31;;;;;;;16.95;11.95;;;;;;;3.83;83.14;97985.16;5000908;28;20203;-73
2022/04/01 10:02:58;;;;;;;20.98;13.07;;;;;;;3.88;82.99;97980.53;5000954;28;20293;-73
2022/04/01 10:05:25;;;;;;;21.00;13.60;;;;;;;3.91;83.12;97985.53;5001454;28;20589;-73
2022/04/01 10:07:53;;;;;;;19.08;12.73;;;;;;;3.92;83.05;97991.59;5001198;28;20289;-74
2022/04/01 10:10:18;;;;;;;17.63;12.80;;;;;;;3.92;82.73;97986.38;5003026;28;20494;-74
2022/04/01 10:12:47;;;;;;;16.87;12.67;;;;;;;3.89;82.97;97986.56;5001586;28;20199;-74
2022/04/01 10:15:13;;;;;;;22.17;13.90;;;;;;;3.85;82.87;97992.88;5001459;28;20484;-74
2022/04/01 10:17:41;;;;;;;17.92;11.30;;;;;;;3.86;82.95;97991.94;5000315;28;20343;-74
2022/04/01 10:20:08;;;;;;;16.70;10.35;;;;;;;3.85;82.88;97992.88;5000116;28;20214;-74
2022/04/01 10:22:35;;;;;;;13.68;10.40;;;;;;;3.86;83.04;97992.81;5000198;28;20572;-74
2022/04/01 10:25:14;;;;;;;15.02;9.52;;;;;;;3.90;82.95;97996.84;5000539;28;20222;-75
2022/04/01 10:27:46;;;;;;;14.07;10.10;;;;;;;3.92;83.25;98001.97;4999700;28;20230;-74
2022/04/01 10:30:18;;;;;;;11.10;8.50;;;;;;;3.91;82.90;97998.50;5000102;28;20233;-75
2022/04/01 10:32:46;;;;;;;11.48;9.43;;;;;;;3.90;82.74;97998.63;5000987;28;20317;-75
2022/04/01 10:35:25;;;;;;;14.38;8.90;;;;;;;3.90;82.84;97999.47;5000517;28;20706;-74
2022/04/01 10:37:55;;;;;;;12.50;10.30;;;;;;;3.92;83.19;98007.16;4847809;28;5001590;-75
2022/04/01 10:40:22;;;;;;;11.93;8.80;;;;;;;3.95;82.81;98001.78;5020589;28;20206;-74
2022/04/01 10:42:48;;;;;;;9.52;7.55;;;;;;;3.96;82.62;98006.03;5019248;28;20252;-74
2022/04/01 10:45:16;;;;;;;10.98;7.63;;;;;;;3.93;82.46;98006.22;5020891;28;20245;-73
2022/04/01 10:53:39;;;;;;;12.02;7.90;;;;;;;3.94;82.63;98015.69;5022984;28;20204;-75
2022/04/01 10:56:26;;;;;;;12.20;9.05;;;;;;;3.92;82.36;98014.97;5021426;28;20255;-75
2022/04/01 10:59:12;;;;;;;9.18;7.10;;;;;;;3.95;82.46;98012.16;5020776;28;20446;-75
2022/04/01 11:01:53;;;;;;;11.75;7.78;;;;;;;3.91;82.37;98013.28;5023210;28;20264;-74
2022/04/01 11:04:18;;;;;;;10.75;7.32;;;;;;;3.86;82.59;98016.19;5018947;28;20241;-74
2022/04/01 11:07:06;;;;;;;12.17;8.27;;;;;;;3.82;82.65;98017.28;5020090;28;20236;-72
2022/04/01 11:09:45;;;;;;;9.45;7.38;;;;;;;3.79;82.64;98019.25;5018888;28;20398;-73
2022/04/01 11:12:17;;;;;;;11.65;7.25;;;;;;;3.77;82.86;98014.13;5020867;28;20206;-73
2022/04/01 11:15:09;;;;;;;9.73;8.05;;;;;;;3.78;82.58;98026.19;5019444;28;20324;-72
2022/04/01 11:17:35;;;;;;;10.48;7.28;;;;;;;3.82;82.87;98019.88;5019052;28;20214;-75
2022/04/01 11:20:21;;;;;;;9.70;6.83;;;;;;;3.89;82.44;98022.91;5018847;28;20351;-72
2022/04/01 11:22:52;;;;;;;11.90;7.72;;;;;;;3.92;82.63;98017.56;5019145;28;20271;-72
2022/04/01 11:25:33;;;;;;;10.25;6.70;;;;;;;3.96;82.22;98019.03;5018947;28;20750;-73
2022/04/01 11:28:14;;;;;;;10.77;6.00;;;;;;;3.96;82.19;98025.03;5019153;28;20288;-72
2022/04/01 11:30:40;;;;;;;10.40;8.60;;;;;;;3.96;82.59;98013.81;5017818;28;20962;-72
2022/04/01 11:33:13;;;;;;;9.50;8.00;;;;;;;4.00;83.04;98025.72;5019639;28;20213;-72
2022/04/01 11:35:41;;;;;;;8.35;6.30;;;;;;;4.05;82.79;98025.41;5018931;28;20904;-72
2022/04/01 11:38:08;;;;;;;7.15;6.45;;;;;;;4.09;82.50;98024.28;5018400;28;20708;-72
2022/04/01 11:40:37;;;;;;;11.02;6.40;;;;;;;4.07;82.66;98029.56;5019289;28;20631;-72
2022/04/01 11:43:07;;;;;;;9.02;5.65;;;;;;;4.02;82.32;98029.03;5019030;28;20367;-73
2022/04/01 11:45:37;;;;;;;8.48;5.55;;;;;;;3.99;82.77;98029.22;5019718;28;20226;-72
2022/04/01 11:48:17;;;;;;;7.15;5.47;;;;;;;3.99;82.63;98029.22;5018326;28;20209;-72
2022/04/01 11:50:45;;;;;;;6.43;5.15;;;;;;;3.95;82.87;98031.19;4969940;28;20649;-73
2022/04/01 11:53:19;;;;;;;7.80;5.70;;;;;;;3.93;83.05;98034.81;4966580;28;20516;-72
2022/04/01 11:55:45;;;;;;;7.75;6.45;;;;;;;3.93;82.89;98038.22;4964982;28;20306;-72
2022/04/01 11:58:11;;;;;;;7.03;5.50;;;;;;;3.97;82.85;98042.31;4964776;28;20578;-73